Time;durP1;ratioP1;P1;durP2;ratioP2;P2;SDS_P1;SDS_P2;PMS_P1;PMS_P2;Temp;Humidity;BMP_temperature;BMP_pressure;BME280_temperature;BME280_humidity;BME280_pressure;Samples;Min_cycle;Max_cycle;Signal;HPM_P1;HPM_P2
2023/06/19 00:01:53;;;;;;;7.85;5.70;;;24.60;87.00;;;;;;4952463;29;20490;-65
2023/06/19 00:04:35;;;;;;;7.05;6.32;;;24.60;87.00;;;;;;4954519;28;20519;-64
2023/06/19 00:07:04;;;;;;;7.10;6.40;;;24.60;86.70;;;;;;4946865;29;20035;-64
2023/06/19 00:09:29;;;;;;;7.68;5.68;;;24.60;86.90;;;;;;4952724;29;20067;-64
2023/06/19 00:11:55;;;;;;;8.75;5.43;;;24.60;86.80;;;;;;4954062;29;20409;-64
2023/06/19 00:14:23;;;;;;;7.30;5.45;;;24.60;86.90;;;;;;4954279;29;20027;-65
2023/06/19 00:17:00;;;;;;;8.98;6.20;;;24.60;87.10;;;;;;4954482;29;20027;-65
2023/06/19 00:19:35;;;;;;;6.07;5.47;;;24.60;87.20;;;;;;4954382;29;20313;-64
2023/06/19 00:22:02;;;;;;;6.53;5.80;;;24.60;87.40;;;;;;4953848;29;20572;-64
2023/06/19 00:24:31;;;;;;;6.10;5.35;;;24.70;88.10;;;;;;4933298;29;20039;-64
2023/06/19 00:27:02;;;;;;;7.63;5.38;;;24.70;89.60;;;;;;4953888;29;20023;-65
2023/06/19 00:29:35;;;;;;;5.75;5.18;;;24.50;85.50;;;;;;4954080;29;20429;-63
2023/06/19 00:32:03;;;;;;;5.95;4.80;;;24.70;84.20;;;;;;4951421;29;20054;-64
2023/06/19 00:34:30;;;;;;;6.25;5.63;;;24.70;83.90;;;;;;4954218;29;20384;-64
2023/06/19 00:36:58;;;;;;;6.57;5.32;;;24.70;83.70;;;;;;4953324;29;20043;-64
2023/06/19 00:39:27;;;;;;;7.05;5.72;;;24.80;83.70;;;;;;4954162;29;20024;-64
2023/06/19 00:41:53;;;;;;;8.30;5.88;;;24.80;83.50;;;;;;4947883;29;20035;-64
2023/06/19 00:44:21;;;;;;;5.57;4.90;;;24.80;83.50;;;;;;4953872;29;20031;-64
2023/06/19 00:46:57;;;;;;;5.40;4.97;;;24.80;83.20;;;;;;4955875;29;20099;-65
2023/06/19 00:49:28;;;;;;;6.75;5.03;;;24.80;83.00;;;;;;4960113;29;20031;-65
2023/06/19 00:51:59;;;;;;;5.63;4.95;;;24.70;82.80;;;;;;4959145;29;20031;-65
2023/06/19 00:54:28;;;;;;;6.03;5.40;;;24.70;83.20;;;;;;4954814;29;20394;-64
2023/06/19 00:56:57;;;;;;;6.57;5.32;;;24.70;82.60;;;;;;4953471;29;20058;-64
2023/06/19 00:59:22;;;;;;;5.45;4.95;;;24.60;82.60;;;;;;4950827;29;20449;-64
2023/06/19 01:01:54;;;;;;;8.65;5.25;;;24.70;82.60;;;;;;4951713;29;20110;-66
2023/06/19 01:04:25;;;;;;;10.57;5.05;;;24.70;82.50;;;;;;4953868;29;20404;-64
2023/06/19 01:06:57;;;;;;;5.18;4.72;;;24.70;82.60;;;;;;4953469;29;20032;-65
2023/06/19 01:09:51;;;;;;;6.75;5.18;;;24.70;82.60;;;;;;4953450;29;20039;-64
2023/06/19 01:12:27;;;;;;;5.60;5.10;;;24.70;82.40;;;;;;4941891;29;20496;-64
2023/06/19 01:15:03;;;;;;;6.60;4.63;;;24.70;82.30;;;;;;4951888;28;20027;-65
2023/06/19 01:17:29;;;;;;;5.40;4.90;;;24.80;82.10;;;;;;4944915;29;20051;-65
2023/06/19 01:19:58;;;;;;;5.57;5.07;;;24.80;82.40;;;;;;4952618;29;20035;-65
2023/06/19 01:22:46;;;;;;;7.63;5.85;;;24.80;83.00;;;;;;4953032;29;20042;-65
2023/06/19 01:25:17;;;;;;;6.13;5.53;;;24.80;83.60;;;;;;4949167;29;20027;-65
2023/06/19 01:27:43;;;;;;;5.90;5.38;;;24.70;83.90;;;;;;4953678;29;20034;-64
2023/06/19 01:30:10;;;;;;;9.65;5.85;;;;;;;;;;4952472;29;20203;-64
2023/06/19 01:32:55;;;;;;;8.38;5.57;;;24.30;70.80;;;;;;4950474;29;20036;-65
2023/06/19 01:35:23;;;;;;;5.93;5.38;;;;;;;;;;4945370;29;20035;-64
2023/06/19 01:37:50;;;;;;;7.32;5.68;;;;;;;;;;4952441;29;20119;-66
2023/06/19 01:40:21;;;;;;;7.07;5.45;;;;;;;;;;4953120;29;20082;-65
2023/06/19 01:42:51;;;;;;;6.97;4.97;;;;;;;;;;4952912;29;20142;-65
2023/06/19 01:45:20;;;;;;;8.98;4.90;;;;;;;;;;4953039;29;20154;-65
2023/06/19 01:47:48;;;;;;;5.32;4.82;;;;;;;;;;4948311;29;20066;-64
2023/06/19 01:50:15;;;;;;;5.65;5.00;;;;;;;;;;4948552;29;20094;-65
2023/06/19 01:52:41;;;;;;;6.50;5.00;;;;;;;;;;4953234;29;20038;-64
2023/06/19 01:55:07;;;;;;;5.55;5.05;;;;;;;;;;4951780;29;20033;-64
2023/06/19 01:57:36;;;;;;;7.05;5.25;;;;;;;;;;4953446;29;20058;-64
2023/06/19 02:00:02;;;;;;;5.65;5.10;;;;;;;;;;4951943;29;20114;-64
2023/06/19 02:02:28;;;;;;;5.70;5.18;;;;;;;;;;4952884;29;20038;-64
2023/06/19 02:04:57;;;;;;;5.45;4.90;;;;;;;;;;4951975;29;20027;-64
2023/06/19 02:07:26;;;;;;;6.18;4.93;;;;;;;;;;4950678;29;20023;-64
2023/06/19 02:09:55;;;;;;;7.40;4.72;;;;;;;;;;4951746;29;20036;-64
2023/06/19 02:12:32;;;;;;;5.45;4.60;;;;;;;;;;4952842;29;20039;-64
2023/06/19 02:15:01;;;;;;;5.00;4.50;;;;;;;;;;4952041;29;20110;-64
2023/06/19 02:17:36;;;;;;;4.93;4.38;;;;;;;;;;4953118;29;20059;-64
2023/06/19 02:20:02;;;;;;;6.03;4.13;;;;;;;;;;4951639;29;20027;-64
2023/06/19 02:22:28;;;;;;;4.97;4.57;;;;;;;;;;4953119;29;20039;-63
2023/06/19 02:24:57;;;;;;;5.57;4.28;;;;;;;;;;4949649;29;20049;-64
2023/06/19 02:27:23;;;;;;;5.10;4.38;;;;;;;;;;4955986;28;20055;-64
2023/06/19 02:29:49;;;;;;;5.22;4.72;;;;;;;;;;4955374;29;20098;-65
2023/06/19 02:32:17;;;;;;;5.20;4.80;;;;;;;;;;4956457;29;20035;-63
2023/06/19 02:34:43;;;;;;;11.98;4.82;;;;;;;;;;4951096;29;20106;-63
2023/06/19 02:37:11;;;;;;;5.45;4.85;;;22.70;79.10;;;;;;4955116;29;20074;-64
2023/06/19 02:39:42;;;;;;;5.38;4.65;;;22.60;79.60;;;;;;4956034;29;20380;-64
2023/06/19 02:42:11;;;;;;;6.40;4.70;;;22.50;79.80;;;;;;4954552;29;20027;-64
2023/06/19 02:44:36;;;;;;;5.15;3.97;;;22.50;80.30;;;;;;4956256;29;20106;-63
2023/06/19 02:47:07;;;;;;;5.70;4.70;;;22.50;80.90;;;;;;4956373;29;20826;-64
2023/06/19 02:49:35;;;;;;;4.78;4.28;;;22.40;81.10;;;;;;4956175;29;20468;-64
2023/06/19 02:52:06;;;;;;;5.00;4.13;;;22.40;81.50;;;;;;4955882;29;20039;-64
2023/06/19 02:54:38;;;;;;;7.43;4.32;;;22.40;81.70;;;;;;4955940;29;20028;-64
2023/06/19 02:57:08;;;;;;;5.25;4.75;;;22.40;82.00;;;;;;4952964;29;20042;-64
2023/06/19 02:59:34;;;;;;;;;;;22.40;82.20;;;;;;4956319;29;20078;-64
2023/06/19 03:02:05;;;;;;;4.57;4.18;;;22.40;82.30;;;;;;4937957;29;19918;-63
2023/06/19 03:04:31;;;;;;;5.00;4.50;;;22.40;82.40;;;;;;4955613;29;20039;-64
2023/06/19 03:07:13;;;;;;;4.30;3.90;;;22.40;82.30;;;;;;4954767;29;20031;-64
2023/06/19 03:09:43;;;;;;;5.25;3.58;;;22.40;82.30;;;;;;4955753;29;20035;-65
2023/06/19 03:12:13;;;;;;;6.63;3.67;;;22.40;82.30;;;;;;4946451;29;20116;-64
2023/06/19 03:14:44;;;;;;;5.55;3.95;;;22.50;82.40;;;;;;4953189;29;20035;-64
2023/06/19 03:17:15;;;;;;;4.13;3.72;;;22.50;82.40;;;;;;4955065;29;20058;-63
2023/06/19 03:19:43;;;;;;;3.63;3.33;;;22.50;82.50;;;;;;4955587;29;20102;-63
2023/06/19 03:22:08;;;;;;;5.90;4.05;;;22.50;82.80;;;;;;4955273;29;20121;-65
2023/06/19 03:24:39;;;;;;;10.07;4.65;;;22.40;83.00;;;;;;4937926;29;20404;-66
2023/06/19 03:27:14;;;;;;;4.65;4.18;;;22.40;83.40;;;;;;4955319;29;20031;-64
2023/06/19 03:29:39;;;;;;;5.55;3.92;;;22.40;83.90;;;;;;4955215;29;20031;-65
2023/06/19 03:32:11;;;;;;;5.40;3.50;;;22.40;84.50;;;;;;4950884;29;20046;-64
2023/06/19 03:34:39;;;;;;;4.32;3.92;;;22.30;85.10;;;;;;4955017;29;20106;-64
2023/06/19 03:37:07;;;;;;;6.20;3.38;;;22.30;85.40;;;;;;4954852;28;20051;-64
2023/06/19 03:39:33;;;;;;;4.35;3.95;;;22.20;85.80;;;;;;4954229;29;20373;-64
2023/06/19 03:41:58;;;;;;;4.13;3.72;;;22.10;86.10;;;;;;4954303;29;20043;-64
2023/06/19 03:44:24;;;;;;;4.25;3.85;;;22.00;86.30;;;;;;4954975;29;20069;-65
2023/06/19 03:46:51;;;;;;;4.82;3.45;;;22.00;86.70;;;;;;4937375;29;20043;-65
2023/06/19 03:49:17;;;;;;;3.70;3.40;;;22.00;87.20;;;;;;4952236;29;20031;-63
2023/06/19 03:51:46;;;;;;;5.60;3.25;;;21.90;87.40;;;;;;4955484;29;20070;-64
2023/06/19 03:54:19;;;;;;;4.75;3.50;;;21.90;88.40;;;;;;4954216;29;20051;-64
2023/06/19 03:56:48;;;;;;;3.90;3.55;;;21.80;90.00;;;;;;4955503;29;20082;-63
2023/06/19 03:59:14;;;;;;;3.53;3.13;;;21.80;92.80;;;;;;4954866;29;20465;-64
2023/06/19 04:01:40;;;;;;;4.15;3.10;;;21.40;99.30;;;;;;4954195;29;20035;-65
2023/06/19 04:04:11;;;;;;;6.28;3.20;;;21.70;99.90;;;;;;4945010;29;20039;-65
2023/06/19 04:06:37;;;;;;;3.50;3.05;;;21.70;99.90;;;;;;4953424;29;20366;-64
2023/06/19 04:09:05;;;;;;;3.30;3.00;;;21.60;99.90;;;;;;4953249;29;20051;-64
2023/06/19 04:11:34;;;;;;;4.47;3.22;;;21.60;99.90;;;;;;4952868;29;20070;-65
2023/06/19 04:13:59;;;;;;;3.17;2.88;;;21.70;99.90;;;;;;4953663;29;20027;-64
2023/06/19 04:16:31;;;;;;;5.07;3.00;;;21.70;99.90;;;;;;4954381;29;20038;-64
2023/06/19 04:18:57;;;;;;;3.30;2.97;;;21.70;99.90;;;;;;4953873;29;20035;-64
2023/06/19 04:21:33;;;;;;;3.50;3.20;;;21.70;99.90;;;;;;4951770;29;20035;-64
2023/06/19 04:24:05;;;;;;;6.03;3.58;;;21.70;99.90;;;;;;4953892;29;20027;-65
2023/06/19 04:26:31;;;;;;;3.95;3.40;;;21.60;99.90;;;;;;4954418;29;20481;-64
2023/06/19 04:29:00;;;;;;;5.38;3.25;;;21.50;99.90;;;;;;4953634;29;20035;-65
2023/06/19 04:31:26;;;;;;;3.30;3.00;;;21.50;99.90;;;;;;4953979;29;20098;-65
2023/06/19 04:33:56;;;;;;;4.70;4.30;;;21.50;99.90;;;;;;4953316;29;20063;-66
2023/06/19 04:36:24;;;;;;;4.50;4.10;;;21.50;99.90;;;;;;4954662;29;20105;-64
2023/06/19 04:39:00;;;;;;;3.78;3.42;;;21.50;99.90;;;;;;4948972;29;20655;-62
2023/06/19 04:41:26;;;;;;;4.38;2.85;;;21.60;99.90;;;;;;4949200;29;20030;-63
2023/06/19 04:43:57;;;;;;;3.72;3.33;;;21.60;99.90;;;;;;4953541;29;20380;-65
2023/06/19 04:46:23;;;;;;;4.32;3.03;;;21.60;99.90;;;;;;4953929;29;20028;-63
2023/06/19 04:51:45;;;;;;;7.55;2.97;;;21.70;99.90;;;;;;4954242;29;20038;-63
2023/06/19 04:54:16;;;;;;;3.35;3.05;;;21.80;99.90;;;;;;4949469;29;20183;-64
2023/06/19 04:56:42;;;;;;;4.00;3.13;;;21.90;99.90;;;;;;4951571;29;20031;-65
2023/06/19 04:59:07;;;;;;;3.22;2.92;;;22.00;99.90;;;;;;4957840;29;20095;-64
2023/06/19 05:01:35;;;;;;;2.60;2.40;;;22.10;99.90;;;;;;4954518;29;20126;-65
2023/06/19 05:04:01;;;;;;;4.70;3.42;;;22.30;99.90;;;;;;4940646;29;20031;-66
2023/06/19 05:06:26;;;;;;;3.45;3.15;;;22.40;99.90;;;;;;4940999;29;20034;-65
2023/06/19 05:08:58;;;;;;;2.90;2.67;;;22.60;99.90;;;;;;4947556;29;20039;-66
2023/06/19 05:11:23;;;;;;;3.45;3.15;;;22.70;99.90;;;;;;4953994;29;20027;-65
2023/06/19 05:13:51;;;;;;;2.45;2.25;;;22.80;99.90;;;;;;4953337;29;20031;-65
2023/06/19 05:16:19;;;;;;;3.22;2.80;;;22.90;99.90;;;;;;4949044;29;20054;-65
2023/06/19 05:18:45;;;;;;;3.33;3.03;;;23.00;99.90;;;;;;4953554;29;20031;-64
2023/06/19 05:21:14;;;;;;;3.13;2.75;;;23.10;99.90;;;;;;4952222;29;20046;-65
2023/06/19 05:23:50;;;;;;;2.88;2.67;;;23.20;99.90;;;;;;4953606;29;20110;-65
2023/06/19 05:26:22;;;;;;;3.70;2.95;;;23.20;99.90;;;;;;4950223;29;20544;-65
2023/06/19 05:28:53;;;;;;;3.05;2.80;;;23.30;99.90;;;;;;4953047;29;20023;-65
2023/06/19 05:31:26;;;;;;;3.05;2.75;;;23.30;99.90;;;;;;4948192;29;20047;-64
2023/06/19 05:33:51;;;;;;;3.13;2.83;;;23.20;99.90;;;;;;4952491;29;20031;-68
2023/06/19 05:36:20;;;;;;;2.90;2.53;;;23.20;99.90;;;;;;4952665;29;20389;-68
2023/06/19 05:38:48;;;;;;;4.32;2.50;;;23.20;99.90;;;;;;4952914;29;20460;-68
2023/06/19 05:41:14;;;;;;;2.70;2.50;;;23.20;99.90;;;;;;4952240;29;20035;-66
2023/06/19 05:43:43;;;;;;;2.72;2.53;;;23.20;99.90;;;;;;4953356;29;20093;-65
2023/06/19 05:46:11;;;;;;;2.70;2.50;;;23.20;99.90;;;;;;4952164;29;20039;-66
2023/06/19 05:48:40;;;;;;;2.60;2.40;;;23.20;99.90;;;;;;4950272;29;20439;-66
2023/06/19 05:51:12;;;;;;;3.28;2.97;;;23.20;99.90;;;;;;4948311;29;20837;-65
2023/06/19 05:53:38;;;;;;;3.25;2.33;;;23.30;99.90;;;;;;4943543;29;20385;-66
2023/06/19 05:56:06;;;;;;;3.42;2.83;;;23.30;99.90;;;;;;4947303;29;20044;-65
2023/06/19 05:58:37;;;;;;;2.85;2.65;;;23.50;99.90;;;;;;4952961;29;20031;-66
2023/06/19 06:01:03;;;;;;;4.22;2.83;;;23.60;99.90;;;;;;4952620;28;20066;-65
2023/06/19 06:03:30;;;;;;;3.13;2.83;;;23.80;99.90;;;;;;4957845;28;20062;-65
2023/06/19 06:06:02;;;;;;;3.95;2.60;;;24.00;99.90;;;;;;4953527;28;20027;-66
2023/06/19 06:08:30;;;;;;;3.33;3.03;;;24.10;99.90;;;;;;4957680;29;20042;-66
2023/06/19 06:10:56;;;;;;;3.80;3.35;;;24.20;99.90;;;;;;4950518;29;20035;-66
2023/06/19 06:13:24;;;;;;;2.78;2.58;;;24.30;99.90;;;;;;4958290;28;20030;-66
2023/06/19 06:15:57;;;;;;;2.75;2.55;;;24.30;99.90;;;;;;4944544;29;20086;-66
2023/06/19 06:18:22;;;;;;;3.20;2.65;;;24.40;99.90;;;;;;4953661;28;20055;-66
2023/06/19 06:20:51;;;;;;;3.60;3.22;;;24.40;99.90;;;;;;4958133;29;20058;-67
2023/06/19 06:23:16;;;;;;;3.20;2.90;;;24.50;99.90;;;;;;4953789;28;20039;-65
2023/06/19 06:25:45;;;;;;;3.50;3.20;;;24.50;99.90;;;;;;4958572;29;20081;-65
2023/06/19 06:28:14;;;;;;;3.17;2.95;;;24.60;99.90;;;;;;4954773;29;20425;-65
2023/06/19 06:30:50;;;;;;;2.80;2.60;;;24.60;99.90;;;;;;4952974;29;20035;-65
2023/06/19 06:33:16;;;;;;;3.03;2.80;;;24.70;99.90;;;;;;4955233;29;20555;-66
2023/06/19 06:35:44;;;;;;;2.70;2.50;;;24.70;99.90;;;;;;4956208;28;20121;-66
2023/06/19 06:38:10;;;;;;;2.70;2.28;;;24.70;99.90;;;;;;4954333;29;20055;-65
2023/06/19 06:40:38;;;;;;;2.92;2.33;;;24.80;99.90;;;;;;4949672;29;20023;-65
2023/06/19 06:43:04;;;;;;;5.47;2.55;;;25.00;99.90;;;;;;4956329;28;20054;-66
2023/06/19 06:45:30;;;;;;;4.22;2.22;;;25.00;99.90;;;;;;4954097;28;20504;-65
2023/06/19 06:47:55;;;;;;;3.75;2.50;;;25.20;99.90;;;;;;4958674;28;20034;-65
2023/06/19 06:50:28;;;;;;;3.38;2.30;;;25.30;99.90;;;;;;4936368;29;20040;-66
2023/06/19 06:52:57;;;;;;;3.53;2.00;;;25.60;99.90;;;;;;4953366;29;20039;-67
2023/06/19 06:55:22;;;;;;;2.60;2.40;;;25.80;99.90;;;;;;4953681;28;20023;-66
2023/06/19 06:57:52;;;;;;;4.95;1.90;;;25.80;99.60;;;;;;4957895;29;20362;-65
2023/06/19 07:00:18;;;;;;;3.72;2.17;;;25.90;99.30;;;;;;4957641;28;20377;-66
2023/06/19 07:02:46;;;;;;;2.97;2.33;;;25.90;99.20;;;;;;4957280;28;20038;-66
2023/06/19 07:05:12;;;;;;;3.83;2.25;;;25.90;99.30;;;;;;4954018;28;20031;-66
2023/06/19 07:07:37;;;;;;;5.32;2.58;;;25.80;99.40;;;;;;4955999;29;20114;-66
2023/06/19 07:10:09;;;;;;;2.75;2.30;;;25.80;99.40;;;;;;4954732;28;20027;-65
2023/06/19 07:12:48;;;;;;;4.25;2.25;;;25.80;99.50;;;;;;4954140;28;20043;-66
2023/06/19 07:15:13;;;;;;;2.85;2.22;;;25.80;99.50;;;;;;4954003;29;20027;-65
2023/06/19 07:17:39;;;;;;;1.90;1.80;;;25.80;99.30;;;;;;4954121;29;20035;-65
2023/06/19 07:20:08;;;;;;;2.42;2.25;;;25.80;99.20;;;;;;4953829;29;20039;-65
2023/06/19 07:22:39;;;;;;;9.85;2.53;;;25.80;99.10;;;;;;4950975;29;20043;-65
2023/06/19 07:25:10;;;;;;;4.10;2.13;;;25.90;99.10;;;;;;4949053;29;20037;-66
2023/06/19 07:27:36;;;;;;;3.85;2.17;;;26.00;98.60;;;;;;4949968;29;20393;-66
2023/06/19 07:30:05;;;;;;;3.05;2.13;;;26.10;98.70;;;;;;4951489;29;20042;-66
2023/06/19 07:32:31;;;;;;;5.45;2.15;;;26.10;98.40;;;;;;4954879;29;20171;-66
2023/06/19 07:34:58;;;;;;;3.85;1.98;;;26.10;98.30;;;;;;4950941;29;20114;-66
2023/06/19 07:37:32;;;;;;;2.17;1.80;;;26.10;98.20;;;;;;4954064;29;20118;-65
2023/06/19 07:39:58;;;;;;;7.95;2.55;;;26.40;97.80;;;;;;4953592;29;20511;-65
2023/06/19 07:42:27;;;;;;;4.05;2.10;;;26.70;97.20;;;;;;4954458;29;20027;-65
2023/06/19 07:44:55;;;;;;;5.28;2.13;;;27.00;96.80;;;;;;4952245;29;20030;-64
2023/06/19 07:47:21;;;;;;;2.50;2.30;;;27.30;96.30;;;;;;4953579;29;20035;-66
2023/06/19 07:49:49;;;;;;;4.28;1.92;;;27.40;95.90;;;;;;4951897;29;20029;-66
2023/06/19 07:52:15;;;;;;;2.50;2.10;;;27.60;95.80;;;;;;4950867;29;20436;-66
2023/06/19 07:54:57;;;;;;;2.15;2.00;;;27.80;96.20;;;;;;4952852;29;20030;-66
2023/06/19 07:57:34;;;;;;;8.35;2.30;;;28.00;95.90;;;;;;4950056;29;20058;-66
2023/06/19 08:00:11;;;;;;;5.93;2.08;;;28.00;95.80;;;;;;4953246;29;20496;-66
2023/06/19 08:02:37;;;;;;;4.05;2.03;;;28.10;95.50;;;;;;4946219;29;20055;-66
2023/06/19 08:05:06;;;;;;;2.30;2.00;;;28.10;96.10;;;;;;4950697;29;20079;-66
2023/06/19 08:07:31;;;;;;;1.95;1.83;;;28.10;95.60;;;;;;4954178;29;20094;-66
2023/06/19 08:09:57;;;;;;;2.22;2.03;;;28.30;95.80;;;;;;4952341;29;20035;-66
2023/06/19 08:12:33;;;;;;;2.17;2.08;;;28.50;95.60;;;;;;4953793;29;20035;-66
2023/06/19 08:15:04;;;;;;;5.60;2.28;;;28.60;95.10;;;;;;4951342;29;20031;-65
2023/06/19 08:17:34;;;;;;;5.50;2.40;;;28.50;95.10;;;;;;4951431;29;20031;-65
2023/06/19 08:20:05;;;;;;;3.38;2.40;;;28.40;95.10;;;;;;4951541;29;20031;-67
2023/06/19 08:22:33;;;;;;;4.53;2.40;;;28.10;95.10;;;;;;4950970;29;20500;-66
2023/06/19 08:25:04;;;;;;;2.58;2.35;;;27.90;95.30;;;;;;4952445;28;20051;-65
2023/06/19 08:27:53;;;;;;;3.05;2.35;;;27.50;95.60;;;;;;4954273;29;20107;-66
2023/06/19 08:30:23;;;;;;;14.85;3.00;;;27.30;95.70;;;;;;4948011;29;20039;-65
2023/06/19 08:32:49;;;;;;;3.50;2.30;;;27.10;96.00;;;;;;4953978;29;20043;-65
2023/06/19 08:35:20;;;;;;;2.20;1.98;;;27.00;96.20;;;;;;4948842;29;20388;-65
2023/06/19 08:37:54;;;;;;;2.28;2.15;;;26.90;96.40;;;;;;4948517;29;20066;-65
2023/06/19 08:40:22;;;;;;;3.35;2.90;;;26.90;96.30;;;;;;4952026;29;20488;-65
2023/06/19 08:42:52;;;;;;;2.45;1.98;;;26.90;96.50;;;;;;4953308;29;20047;-67
2023/06/19 08:45:20;;;;;;;9.15;2.47;;;26.80;96.50;;;;;;4949659;29;20035;-65
2023/06/19 08:47:57;;;;;;;2.42;2.00;;;26.80;96.60;;;;;;4954078;29;20043;-66
2023/06/19 08:50:25;;;;;;;4.45;2.45;;;26.80;96.60;;;;;;4947543;29;20440;-66
2023/06/19 08:52:54;;;;;;;2.75;2.40;;;26.80;96.40;;;;;;4949800;29;20047;-66
2023/06/19 08:55:28;;;;;;;3.33;2.80;;;26.90;96.40;;;;;;4945596;29;20133;-65
2023/06/19 08:57:57;;;;;;;2.50;2.30;;;27.10;96.10;;;;;;4950772;29;20031;-65
2023/06/19 09:00:27;;;;;;;3.13;2.28;;;27.20;96.10;;;;;;4952786;29;20031;-65
2023/06/19 09:03:02;;;;;;;2.60;2.40;;;27.30;96.00;;;;;;4948782;29;20077;-64
2023/06/19 09:05:41;;;;;;;4.88;2.17;;;27.40;95.90;;;;;;4949932;29;20027;-64
2023/06/19 09:08:15;;;;;;;2.50;2.30;;;27.50;95.60;;;;;;4950162;29;20028;-65
2023/06/19 09:11:13;;;;;;;2.38;2.17;;;27.80;95.30;;;;;;4950888;29;20039;-66
2023/06/19 09:13:39;;;;;;;3.78;2.58;;;28.00;95.20;;;;;;4927542;29;20051;-65
2023/06/19 09:16:08;;;;;;;3.25;2.72;;;28.10;95.00;;;;;;4951753;29;20034;-65
2023/06/19 09:18:45;;;;;;;2.88;2.38;;;28.30;94.70;;;;;;4952704;29;20330;-66
2023/06/19 09:21:28;;;;;;;2.95;2.22;;;28.40;94.30;;;;;;4947417;29;20039;-66
2023/06/19 09:23:54;;;;;;;2.80;2.45;;;28.40;94.00;;;;;;4950793;29;20083;-67
2023/06/19 09:26:22;;;;;;;6.35;2.97;;;28.60;94.00;;;;;;4953366;29;20109;-65
2023/06/19 09:28:50;;;;;;;5.75;2.30;;;28.60;94.10;;;;;;4952669;29;20035;-66
2023/06/19 09:31:18;;;;;;;2.22;2.08;;;28.60;93.90;;;;;;4950357;29;20497;-66
2023/06/19 09:33:44;;;;;;;2.85;2.15;;;28.70;93.40;;;;;;4945663;29;20387;-70
2023/06/19 09:36:09;;;;;;;2.25;2.15;;;28.90;93.40;;;;;;4939691;28;20050;-66
2023/06/19 09:38:40;;;;;;;3.03;2.38;;;28.90;93.30;;;;;;4947872;29;20065;-67
2023/06/19 09:41:09;;;;;;;1.90;1.80;;;28.90;92.90;;;;;;4951335;29;20027;-67
2023/06/19 09:43:49;;;;;;;3.80;2.20;;;29.20;92.30;;;;;;4952383;29;20039;-67
2023/06/19 09:46:18;;;;;;;5.47;2.30;;;29.30;92.40;;;;;;4952075;29;20027;-67
2023/06/19 09:48:50;;;;;;;2.22;2.13;;;29.40;91.50;;;;;;4952197;29;20035;-66
2023/06/19 09:51:42;;;;;;;5.50;2.53;;;29.40;91.40;;;;;;4950918;29;20024;-66
2023/06/19 09:54:10;;;;;;;3.55;2.88;;;29.40;91.80;;;;;;4918755;29;20047;-66
2023/06/19 09:56:38;;;;;;;5.97;2.83;;;29.30;92.30;;;;;;4949969;29;20051;-66
2023/06/19 09:59:09;;;;;;;3.53;3.17;;;29.10;92.30;;;;;;4951657;29;20035;-66
2023/06/19 10:01:35;;;;;;;3.40;2.90;;;29.00;92.60;;;;;;4951948;29;20393;-65
2023/06/19 10:04:13;;;;;;;3.15;2.85;;;28.90;92.80;;;;;;4951173;29;20046;-66
2023/06/19 10:07:03;;;;;;;3.00;2.80;;;29.00;92.60;;;;;;4933765;29;20084;-67
2023/06/19 10:09:35;;;;;;;3.17;2.70;;;29.00;92.70;;;;;;4932822;29;20035;-66
2023/06/19 10:12:14;;;;;;;3.75;3.17;;;29.00;92.70;;;;;;4945367;29;20050;-65
2023/06/19 10:14:48;;;;;;;6.88;2.80;;;28.90;92.40;;;;;;4951106;29;20042;-67
2023/06/19 10:17:42;;;;;;;4.22;3.15;;;28.80;92.60;;;;;;4946725;29;20054;-65
2023/06/19 10:20:21;;;;;;;5.38;2.72;;;28.70;92.70;;;;;;4947621;29;20569;-66
2023/06/19 10:23:02;;;;;;;4.38;2.75;;;28.80;92.60;;;;;;4951817;29;20126;-68
2023/06/19 10:25:36;;;;;;;5.55;2.55;;;28.90;92.50;;;;;;4950546;29;20054;-66
2023/06/19 10:28:02;;;;;;;5.78;2.58;;;28.90;92.50;;;;;;4949762;29;20468;-67
2023/06/19 10:30:29;;;;;;;6.97;3.72;;;29.10;92.70;;;;;;4951048;29;20032;-66
2023/06/19 10:33:02;;;;;;;4.88;3.10;;;29.30;92.20;;;;;;4945708;29;20047;-65
2023/06/19 10:35:39;;;;;;;4.68;3.13;;;29.60;91.60;;;;;;4949480;29;20039;-66
2023/06/19 10:38:09;;;;;;;3.17;2.88;;;29.90;90.80;;;;;;4951012;29;20066;-66
2023/06/19 10:40:39;;;;;;;3.53;3.25;;;30.10;76.90;;;;;;4951569;29;20042;-65
2023/06/19 10:43:05;;;;;;;4.68;2.95;;;30.10;76.40;;;;;;4951065;29;20039;-64
2023/06/19 10:45:33;;;;;;;3.40;3.10;;;30.00;76.40;;;;;;4949950;29;20495;-66
2023/06/19 10:48:04;;;;;;;3.17;2.88;;;29.90;76.20;;;;;;4949951;28;20035;-67
2023/06/19 10:50:41;;;;;;;3.45;3.15;;;29.80;76.30;;;;;;4951801;28;20106;-66
2023/06/19 10:53:09;;;;;;;5.65;3.78;;;29.80;77.10;;;;;;4954705;29;20039;-67
2023/06/19 10:55:34;;;;;;;3.97;3.63;;;29.90;77.50;;;;;;4954108;29;20082;-66
2023/06/19 10:58:00;;;;;;;7.15;3.42;;;29.90;76.60;;;;;;4953848;29;20495;-65
2023/06/19 11:00:34;;;;;;;4.53;3.30;;;29.70;76.90;;;;;;4955019;29;20078;-66
2023/06/19 11:03:03;;;;;;;3.00;2.80;;;29.70;77.00;;;;;;4947813;29;20134;-66
2023/06/19 11:05:33;;;;;;;4.82;3.33;;;29.70;77.70;;;;;;4955265;29;20113;-65
2023/06/19 11:08:02;;;;;;;4.00;3.70;;;29.80;77.50;;;;;;4953582;29;20070;-64
2023/06/19 11:10:37;;;;;;;4.60;3.13;;;29.70;76.90;;;;;;4954571;29;20563;-65
2023/06/19 11:13:13;;;;;;;6.68;3.08;;;29.50;77.80;;;;;;4935605;29;20031;-66
2023/06/19 11:15:51;;;;;;;3.72;3.00;;;29.50;77.80;;;;;;4949849;29;20079;-66
2023/06/19 11:18:18;;;;;;;4.97;3.30;;;29.60;77.80;;;;;;4938109;29;20458;-65
2023/06/19 11:20:50;;;;;;;3.45;3.13;;;29.80;77.40;;;;;;4948235;29;20031;-65
2023/06/19 11:23:27;;;;;;;3.42;3.13;;;30.20;77.20;;;;;;4952863;29;20074;-65
2023/06/19 11:26:05;;;;;;;4.20;2.92;;;30.50;76.10;;;;;;4954060;29;20032;-65
2023/06/19 11:28:34;;;;;;;3.28;3.00;;;30.70;75.90;;;;;;4954452;29;20042;-66
2023/06/19 11:31:03;;;;;;;4.78;3.45;;;30.70;75.90;;;;;;4951440;29;20384;-65
2023/06/19 11:33:30;;;;;;;3.15;2.95;;;30.70;76.10;;;;;;4955194;29;20031;-65
2023/06/19 11:35:59;;;;;;;3.40;3.10;;;30.70;75.20;;;;;;4953816;29;20039;-65
2023/06/19 11:38:30;;;;;;;4.43;3.45;;;30.70;75.70;;;;;;4954461;29;20081;-66
2023/06/19 11:40:58;;;;;;;4.82;3.80;;;30.90;75.00;;;;;;4951679;29;20047;-66
2023/06/19 11:43:30;;;;;;;4.00;2.97;;;31.00;74.90;;;;;;4954834;29;20039;-65
2023/06/19 11:46:07;;;;;;;3.65;3.33;;;31.20;74.40;;;;;;4947480;29;20027;-66
2023/06/19 11:48:36;;;;;;;8.15;3.22;;;31.20;74.70;;;;;;4954325;29;20027;-66
2023/06/19 11:51:04;;;;;;;3.37;3.10;;;31.50;74.50;;;;;;4951289;29;20058;-66
2023/06/19 11:53:33;;;;;;;6.80;3.42;;;31.80;73.20;;;;;;4953482;29;20136;-66
2023/06/19 11:55:58;;;;;;;4.10;3.10;;;32.10;72.60;;;;;;4953257;29;20031;-66
2023/06/19 11:58:29;;;;;;;3.13;2.92;;;32.10;72.00;;;;;;4949008;28;20098;-65
2023/06/19 12:00:56;;;;;;;5.00;3.03;;;32.10;72.10;;;;;;4951969;29;20062;-65
2023/06/19 12:03:24;;;;;;;5.35;3.17;;;32.30;71.90;;;;;;4953884;29;20043;-65
2023/06/19 12:05:49;;;;;;;4.75;3.38;;;32.40;71.90;;;;;;4949379;29;20031;-65
2023/06/19 12:08:17;;;;;;;5.32;3.20;;;32.30;72.10;;;;;;4952607;29;20548;-66
2023/06/19 12:10:52;;;;;;;5.53;3.90;;;32.00;72.50;;;;;;4948782;29;20027;-66
2023/06/19 12:13:20;;;;;;;3.75;3.17;;;31.90;72.40;;;;;;4951454;29;20035;-66
2023/06/19 12:15:46;;;;;;;3.55;3.25;;;31.70;74.90;;;;;;4951332;29;20050;-66
2023/06/19 12:18:12;;;;;;;6.28;3.33;;;31.70;94.60;;;;;;4948201;29;20089;-67
2023/06/19 12:20:38;;;;;;;7.95;3.45;;;31.60;73.20;;;;;;4953623;29;20089;-65
2023/06/19 12:23:03;;;;;;;3.67;3.38;;;31.60;73.00;;;;;;4953091;29;20051;-66
2023/06/19 12:25:32;;;;;;;3.85;3.53;;;31.60;72.80;;;;;;4954029;29;20035;-65
2023/06/19 12:28:00;;;;;;;3.03;2.72;;;31.70;73.10;;;;;;4952939;29;20027;-65
2023/06/19 12:30:26;;;;;;;3.65;3.28;;;32.00;93.60;;;;;;4949956;29;20649;-65
2023/06/19 12:32:54;;;;;;;3.50;3.20;;;32.30;93.10;;;;;;4945029;29;20046;-66
2023/06/19 12:35:28;;;;;;;4.25;3.10;;;32.60;92.20;;;;;;4948745;29;20032;-65
2023/06/19 12:37:57;;;;;;;3.83;3.30;;;32.80;90.50;;;;;;4949032;29;20130;-65
2023/06/19 12:40:25;;;;;;;5.82;3.60;;;32.80;90.40;;;;;;4953205;29;20032;-66
2023/06/19 12:42:50;;;;;;;3.97;3.25;;;32.30;90.40;;;;;;4953054;29;20084;-66
2023/06/19 12:45:16;;;;;;;3.72;2.97;;;32.00;90.70;;;;;;4947325;29;20076;-65
2023/06/19 12:47:47;;;;;;;3.65;3.35;;;32.00;90.80;;;;;;4951016;29;20818;-66
2023/06/19 12:50:13;;;;;;;5.53;3.10;;;32.00;91.00;;;;;;4953450;29;20110;-66
2023/06/19 12:52:47;;;;;;;3.47;3.10;;;32.30;90.00;;;;;;4952961;29;20162;-67
2023/06/19 12:55:14;;;;;;;5.07;3.13;;;32.30;88.50;;;;;;4950066;29;20461;-65
2023/06/19 12:57:40;;;;;;;3.13;2.75;;;32.20;88.40;;;;;;4953541;29;20035;-66
2023/06/19 13:00:11;;;;;;;3.83;2.97;;;31.90;89.10;;;;;;4951073;29;20808;-66
2023/06/19 13:02:40;;;;;;;4.68;3.05;;;31.60;89.20;;;;;;4950138;29;20027;-65
2023/06/19 13:05:07;;;;;;;3.75;3.33;;;31.50;89.80;;;;;;4950567;29;20075;-65
2023/06/19 13:07:42;;;;;;;3.47;3.17;;;31.40;90.00;;;;;;4936651;29;20106;-65
2023/06/19 13:10:08;;;;;;;4.00;3.17;;;31.40;90.30;;;;;;4948181;28;20035;-67
2023/06/19 13:12:33;;;;;;;6.55;3.33;;;31.50;90.10;;;;;;4952617;29;20038;-66